Time;durP1;ratioP1;P1;durP2;ratioP2;P2;SDS_P1;SDS_P2;PMS_P1;PMS_P2;Temp;Humidity;BMP_temperature;BMP_pressure;BME280_temperature;BME280_humidity;BME280_pressure;Samples;Min_cycle;Max_cycle;Signal;HPM_P1;HPM_P2
2021/10/17 00:02:19;;;;;;;7.70;5.20;;;;;;;9.50;66.26;94110.94;5012576;28;20044;-71
2021/10/17 00:04:45;;;;;;;6.85;4.35;;;;;;;9.61;65.89;94112.28;5011635;28;20014;-72
2021/10/17 00:07:11;;;;;;;8.60;4.68;;;;;;;9.60;65.87;94115.22;5008929;28;20025;-74
2021/10/17 00:09:38;;;;;;;6.28;3.88;;;;;;;9.70;65.22;94115.81;5002620;28;20034;-72
2021/10/17 00:12:12;;;;;;;9.40;4.45;;;;;;;9.61;65.24;94091.06;5018591;28;20622;-72
2021/10/17 00:14:38;;;;;;;5.33;3.77;;;;;;;9.76;65.01;94109.31;5013818;28;20690;-72
2021/10/17 00:17:04;;;;;;;6.30;4.32;;;;;;;9.78;65.11;94114.31;5012392;28;20042;-72
2021/10/17 00:19:30;;;;;;;7.95;5.20;;;;;;;9.75;64.94;94110.38;5007707;28;20036;-72
2021/10/17 00:21:55;;;;;;;7.35;4.63;;;;;;;9.68;65.33;94117.19;5007476;28;20046;-72
2021/10/17 00:24:21;;;;;;;6.68;4.13;;;;;;;9.53;65.47;94118.31;5009615;28;20065;-72
2021/10/17 00:26:46;;;;;;;7.05;4.50;;;;;;;9.59;65.96;94111.00;5008670;28;20099;-72
2021/10/17 00:29:12;;;;;;;9.27;5.30;;;;;;;9.53;65.52;94113.00;5011591;28;20115;-72
2021/10/17 00:31:37;;;;;;;8.48;5.53;;;;;;;9.57;65.93;94113.19;5007575;28;20037;-74
2021/10/17 00:34:03;;;;;;;6.70;4.53;;;;;;;9.50;65.67;94113.59;5009028;28;20068;-72
2021/10/17 00:36:28;;;;;;;6.03;4.68;;;;;;;9.27;66.60;94090.72;5004999;28;20514;-73
2021/10/17 00:38:54;;;;;;;8.75;4.97;;;;;;;9.38;67.02;94114.13;5011906;28;20033;-72
2021/10/17 00:41:19;;;;;;;7.60;4.40;;;;;;;9.37;66.82;94115.19;5012745;28;20036;-74
2021/10/17 00:43:48;;;;;;;7.45;4.80;;;;;;;9.30;66.72;94101.53;5011182;28;20136;-73
2021/10/17 00:46:21;;;;;;;8.80;6.47;;;;;;;9.44;66.68;94104.94;5013316;28;20035;-72
2021/10/17 00:48:46;;;;;;;7.40;4.43;;;;;;;9.53;66.18;94120.19;5011782;28;20549;-72
2021/10/17 00:51:15;;;;;;;7.55;5.18;;;;;;;9.49;65.98;94108.59;5012773;28;20037;-72
2021/10/17 00:53:41;;;;;;;7.47;4.65;;;;;;;9.49;65.87;94114.66;5010643;28;20067;-71
2021/10/17 00:56:06;;;;;;;8.50;5.38;;;;;;;9.36;66.53;94115.47;5016359;28;20045;-72
2021/10/17 00:58:32;;;;;;;11.30;5.05;;;;;;;9.39;66.61;94118.31;5017275;28;20022;-72
2021/10/17 01:00:58;;;;;;;11.23;5.28;;;;;;;9.27;66.38;94102.13;5016054;28;20215;-72
2021/10/17 01:03:29;;;;;;;8.88;5.43;;;;;;;9.33;66.35;94119.53;5011951;28;20132;-74
2021/10/17 01:05:56;;;;;;;7.43;5.03;;;;;;;9.32;66.68;94115.31;5016235;28;20366;-72
2021/10/17 01:08:22;;;;;;;13.10;7.18;;;;;;;9.22;67.04;94104.09;5007135;28;20152;-72
2021/10/17 01:10:48;;;;;;;11.18;6.65;;;;;;;9.26;67.06;94116.47;5010685;28;20579;-71
2021/10/17 01:13:22;;;;;;;9.63;6.63;;;;;;;9.28;67.14;94113.53;5017311;28;20029;-72
2021/10/17 01:15:52;;;;;;;8.85;5.88;;;;;;;9.29;67.08;94102.59;5008674;28;20033;-72
2021/10/17 01:18:18;;;;;;;12.95;6.60;;;;;;;9.45;67.18;94119.78;5015560;28;20041;-72
2021/10/17 01:20:43;;;;;;;12.52;7.28;;;;;;;9.45;66.18;94109.19;5016415;28;20050;-72
2021/10/17 01:23:09;;;;;;;10.07;6.35;;;;;;;9.40;66.13;94093.34;5009980;28;20088;-72
2021/10/17 01:25:35;;;;;;;12.98;6.82;;;;;;;9.39;66.20;94098.94;5019101;28;20024;-71
2021/10/17 01:28:00;;;;;;;9.82;5.97;;;;;;;9.35;66.23;94109.38;5013726;28;20130;-72
2021/10/17 01:30:30;;;;;;;9.43;4.88;;;;;;;9.26;66.72;94105.88;5012002;28;20060;-72
2021/10/17 01:32:56;;;;;;;10.57;5.97;;;;;;;9.35;66.46;94106.72;5017180;28;20048;-72
2021/10/17 01:35:21;;;;;;;10.00;5.95;;;;;;;9.26;66.39;94095.25;5014300;28;20415;-74
2021/10/17 01:37:46;;;;;;;8.55;5.60;;;;;;;9.35;66.83;94114.69;5014648;28;20114;-71
2021/10/17 01:40:12;;;;;;;8.07;5.22;;;;;;;9.29;66.22;94105.25;5016255;28;20361;-72
2021/10/17 01:42:38;;;;;;;11.63;5.65;;;;;;;9.27;66.40;94091.53;5012228;28;20141;-72
2021/10/17 01:45:04;;;;;;;7.80;5.00;;;;;;;9.22;66.69;94094.28;5014670;28;20049;-71
2021/10/17 01:47:29;;;;;;;7.72;4.97;;;;;;;9.22;66.85;94109.41;5010140;28;20399;-72
2021/10/17 01:49:55;;;;;;;9.93;6.45;;;;;;;9.12;67.40;94093.69;5012702;28;20478;-72
2021/10/17 01:52:20;;;;;;;11.10;6.13;;;;;;;9.22;67.24;94099.59;5015708;28;20033;-72
2021/10/17 01:54:46;;;;;;;11.68;6.03;;;;;;;9.29;67.19;94099.19;5014108;28;20037;-72
2021/10/17 01:57:11;;;;;;;10.95;6.18;;;;;;;9.26;66.72;94103.22;5011216;28;20044;-72
2021/10/17 01:59:36;;;;;;;9.00;5.78;;;;;;;9.15;67.46;94093.88;5010494;28;20582;-72
2021/10/17 02:02:02;;;;;;;10.93;5.63;;;;;;;9.36;67.38;94105.66;5015851;28;20465;-72
2021/10/17 02:04:27;;;;;;;11.88;6.80;;;;;;;9.35;66.68;94097.97;5019089;28;20060;-72
2021/10/17 02:06:53;;;;;;;9.77;5.97;;;;;;;9.36;66.72;94089.72;5009863;28;20049;-72
2021/10/17 02:09:19;;;;;;;11.90;6.60;;;;;;;9.48;66.17;94096.41;5015893;28;20026;-72
2021/10/17 02:11:44;;;;;;;10.63;6.25;;;;;;;9.57;66.02;94099.91;5014390;28;20091;-72
2021/10/17 02:14:10;;;;;;;10.90;6.78;;;;;;;9.54;65.76;94100.50;5012908;28;20041;-73
2021/10/17 02:16:35;;;;;;;9.65;6.05;;;;;;;9.46;65.84;94088.72;5011670;28;20029;-73
2021/10/17 02:19:00;;;;;;;11.05;7.13;;;;;;;9.54;65.66;94097.84;5008321;28;20119;-71
2021/10/17 02:21:27;;;;;;;10.85;6.43;;;;;;;9.48;65.81;94096.41;5007505;28;20420;-72
2021/10/17 02:23:52;;;;;;;8.75;5.45;;;;;;;9.20;66.37;94075.19;5003667;28;20034;-72
2021/10/17 02:26:18;;;;;;;13.52;7.43;;;;;;;9.36;66.18;94083.63;5007320;28;20855;-72
2021/10/17 02:28:43;;;;;;;9.85;6.53;;;;;;;9.47;66.12;94100.13;5009523;28;20046;-72
2021/10/17 02:31:08;;;;;;;12.73;6.60;;;;;;;9.55;65.77;94107.38;5012026;28;20815;-72
2021/10/17 02:33:34;;;;;;;9.32;5.95;;;;;;;9.55;65.44;94099.41;5012890;28;20120;-72
2021/10/17 02:36:00;;;;;;;11.32;6.70;;;;;;;9.63;65.41;94104.03;5008721;28;20060;-72
2021/10/17 02:38:26;;;;;;;12.48;6.82;;;;;;;9.54;65.73;94111.13;5008347;28;20061;-72
2021/10/17 02:40:51;;;;;;;10.80;6.85;;;;;;;9.54;65.18;94106.59;5001596;28;20124;-73
2021/10/17 02:43:17;;;;;;;14.05;7.78;;;;;;;9.47;65.20;94094.81;5010663;28;20017;-72
2021/10/17 02:45:42;;;;;;;12.55;7.40;;;;;;;9.35;65.33;94090.81;5016701;28;20672;-72
2021/10/17 02:48:07;;;;;;;13.52;7.30;;;;;;;9.50;65.33;94104.84;5006953;28;20443;-72
2021/10/17 02:50:33;;;;;;;12.75;7.88;;;;;;;9.65;65.01;94118.56;5004984;28;20483;-73
2021/10/17 02:52:58;;;;;;;11.25;6.72;;;;;;;9.57;64.90;94105.22;5012748;28;20037;-72
2021/10/17 02:55:24;;;;;;;12.13;7.53;;;;;;;9.68;64.89;94112.66;5011085;28;20049;-72
2021/10/17 02:57:49;;;;;;;11.07;6.60;;;;;;;9.82;64.63;94123.25;5009307;28;20510;-73
2021/10/17 03:00:17;;;;;;;12.20;7.43;;;;;;;9.80;64.25;94107.59;5012841;28;20627;-72
2021/10/17 03:02:42;;;;;;;10.52;6.43;;;;;;;9.93;63.61;94119.25;5015473;28;20581;-72
2021/10/17 03:05:10;;;;;;;14.30;7.28;;;;;;;9.95;63.67;94118.97;5006844;28;20609;-74
2021/10/17 03:07:35;;;;;;;11.27;6.57;;;;;;;9.99;63.43;94112.75;5014893;28;20033;-73
2021/10/17 03:10:00;;;;;;;11.95;6.78;;;;;;;10.04;63.08;94122.47;5015687;28;20050;-72
2021/10/17 03:12:26;;;;;;;10.48;6.10;;;;;;;10.03;63.06;94115.59;5010999;28;20517;-73
2021/10/17 03:14:51;;;;;;;13.20;6.63;;;;;;;9.99;63.17;94118.06;5011809;28;20049;-72
2021/10/17 03:17:17;;;;;;;12.65;6.80;;;;;;;9.91;63.33;94105.50;5014525;28;20343;-72
2021/10/17 03:19:43;;;;;;;8.65;5.63;;;;;;;10.01;62.96;94113.25;5009081;28;20021;-73
2021/10/17 03:22:08;;;;;;;10.90;6.15;;;;;;;10.10;62.65;94122.06;5013327;28;20094;-72
2021/10/17 03:24:33;;;;;;;10.18;6.15;;;;;;;10.08;62.74;94110.94;5008029;28;20037;-72
2021/10/17 03:26:59;;;;;;;10.57;6.18;;;;;;;10.19;62.31;94117.59;5010071;28;20569;-72
2021/10/17 03:29:24;;;;;;;13.40;6.65;;;;;;;10.18;62.33;94117.88;5012855;28;20037;-72
2021/10/17 03:31:50;;;;;;;11.32;7.15;;;;;;;10.10;62.13;94103.47;5008928;28;20037;-71
2021/10/17 03:34:15;;;;;;;10.13;6.30;;;;;;;10.13;62.34;94102.06;5007298;28;20029;-72
2021/10/17 03:36:41;;;;;;;13.15;5.50;;;;;;;10.27;62.37;94124.81;5014944;28;20055;-72
2021/10/17 03:39:06;;;;;;;9.60;6.40;;;;;;;10.32;61.61;94127.34;5012159;28;20044;-73
2021/10/17 03:41:32;;;;;;;8.27;4.97;;;;;;;10.34;61.42;94119.09;5007839;28;20052;-74
2021/10/17 03:43:57;;;;;;;10.15;7.57;;;;;;;10.25;61.66;94123.56;5012535;28;20119;-72
2021/10/17 03:46:23;;;;;;;7.88;5.43;;;;;;;10.19;61.55;94106.94;5011558;28;20068;-72
2021/10/17 03:48:48;;;;;;;10.18;5.95;;;;;;;10.21;61.82;94114.63;5009292;28;20136;-71
2021/10/17 03:51:14;;;;;;;10.02;6.63;;;;;;;10.26;61.56;94115.31;5011413;28;20129;-72
2021/10/17 03:53:39;;;;;;;10.18;5.70;;;;;;;10.41;61.37;94124.03;5012786;28;20084;-72
2021/10/17 03:56:05;;;;;;;11.40;6.07;;;;;;;10.28;61.32;94110.44;5007861;28;20045;-72
2021/10/17 03:58:30;;;;;;;8.88;5.53;;;;;;;10.44;61.41;94126.06;5008435;28;20120;-72
2021/10/17 04:00:56;;;;;;;8.82;5.40;;;;;;;10.36;61.64;94121.44;5010003;28;20042;-72
2021/10/17 04:03:21;;;;;;;9.75;5.75;;;;;;;10.33;61.49;94110.31;5015304;28;20045;-72
2021/10/17 04:05:46;;;;;;;9.80;5.18;;;;;;;10.59;60.43;94123.00;5008202;28;20496;-72
2021/10/17 04:08:12;;;;;;;10.93;6.13;;;;;;;10.59;60.82;94120.34;5011202;28;20037;-72
2021/10/17 04:10:39;;;;;;;9.25;5.80;;;;;;;10.55;60.97;94130.03;5010030;28;20136;-72
2021/10/17 04:13:04;;;;;;;9.18;5.43;;;;;;;10.47;61.13;94117.47;5011583;28;20834;-72
2021/10/17 04:15:36;;;;;;;7.97;4.55;;;;;;;10.42;60.46;94105.06;5005458;28;20495;-72
2021/10/17 04:18:02;;;;;;;5.80;4.57;;;;;;;10.46;60.88;94126.56;5012363;28;20950;-72
2021/10/17 04:20:28;;;;;;;8.40;5.65;;;;;;;10.61;60.28;94131.50;5011821;28;20037;-72
2021/10/17 04:22:53;;;;;;;7.90;5.03;;;;;;;10.50;60.70;94132.81;5011759;28;20142;-72
2021/10/17 04:25:19;;;;;;;9.98;5.63;;;;;;;10.61;60.37;94139.47;5005349;28;20059;-71
2021/10/17 04:27:44;;;;;;;13.55;7.43;;;;;;;10.58;59.74;94145.38;5010359;28;20699;-72
2021/10/17 04:30:10;;;;;;;9.70;7.00;;;;;;;10.56;60.29;94142.25;5007733;28;20049;-72
2021/10/17 04:32:36;;;;;;;13.45;6.85;;;;;;;10.52;60.24;94130.63;5007791;28;20045;-74
2021/10/17 04:35:01;;;;;;;14.20;8.73;;;;;;;10.50;60.65;94130.97;5014289;28;20404;-72
2021/10/17 04:37:29;;;;;;;12.27;7.63;;;;;;;10.59;60.27;94138.97;5014447;28;20503;-72
2021/10/17 04:39:54;;;;;;;13.65;8.20;;;;;;;10.55;60.06;94130.03;5007900;28;20778;-73
2021/10/17 04:42:20;;;;;;;14.95;8.93;;;;;;;10.41;60.11;94130.13;5003880;28;20546;-72
2021/10/17 04:44:45;;;;;;;15.65;9.18;;;;;;;10.55;60.07;94146.00;5011773;28;20533;-72
2021/10/17 04:47:10;;;;;;;14.07;8.57;;;;;;;10.46;60.19;94142.50;5011432;28;20033;-72
2021/10/17 04:49:36;;;;;;;15.77;9.10;;;;;;;10.39;60.14;94136.81;5006908;28;20507;-73
2021/10/17 04:52:01;;;;;;;16.60;9.98;;;;;;;10.42;60.35;94157.47;5012541;28;20061;-72
2021/10/17 04:54:26;;;;;;;15.93;9.50;;;;;;;10.44;60.31;94163.28;5008560;28;20097;-73
2021/10/17 04:56:52;;;;;;;21.38;10.63;;;;;;;10.15;61.11;94148.53;5004431;28;20460;-71
2021/10/17 04:59:21;;;;;;;16.73;10.15;;;;;;;9.88;61.10;94108.75;5011790;28;20064;-72
2021/10/17 05:01:48;;;;;;;12.50;8.00;;;;;;;10.18;61.36;94152.44;5008158;28;20022;-72
2021/10/17 05:04:13;;;;;;;15.25;8.88;;;;;;;10.38;60.92;94173.25;5015572;28;20097;-71
2021/10/17 05:06:39;;;;;;;12.82;8.02;;;;;;;10.47;60.77;94171.44;5013601;28;20047;-71
2021/10/17 05:09:04;;;;;;;14.23;8.02;;;;;;;10.49;61.13;94179.91;5009663;28;20537;-72
2021/10/17 05:11:29;;;;;;;12.57;7.70;;;;;;;10.56;60.66;94177.59;5014166;28;20113;-72
2021/10/17 05:13:55;;;;;;;11.85;7.50;;;;;;;10.57;60.60;94173.84;5012119;28;20480;-74
2021/10/17 05:16:21;;;;;;;14.52;8.25;;;;;;;10.62;60.55;94178.25;5015966;28;20021;-72
2021/10/17 05:18:46;;;;;;;13.32;8.13;;;;;;;10.65;60.42;94172.34;5010152;28;20098;-72
2021/10/17 05:21:11;;;;;;;16.13;8.93;;;;;;;10.59;60.06;94176.22;5017710;28;20078;-73
2021/10/17 05:23:37;;;;;;;18.67;8.93;;;;;;;10.68;60.28;94187.69;5003458;28;20083;-74
2021/10/17 05:26:03;;;;;;;14.82;8.50;;;;;;;10.69;59.99;94190.06;5017618;28;20037;-72
2021/10/17 05:28:32;;;;;;;12.90;8.05;;;;;;;10.78;59.66;94184.78;5014715;28;20104;-72
2021/10/17 05:31:00;;;;;;;11.60;7.97;;;;;;;10.86;59.29;94193.88;5007176;28;20410;-72
2021/10/17 05:33:26;;;;;;;15.38;9.23;;;;;;;10.90;59.17;94193.00;5015139;28;20149;-72
2021/10/17 05:35:51;;;;;;;12.27;7.15;;;;;;;10.73;59.78;94174.25;5011331;28;20451;-72
2021/10/17 05:38:17;;;;;;;14.93;8.85;;;;;;;10.70;59.89;94174.88;5013627;28;20040;-72
2021/10/17 05:40:42;;;;;;;13.65;8.75;;;;;;;10.93;59.37;94195.03;5013396;28;20045;-72
2021/10/17 05:43:08;;;;;;;14.85;7.93;;;;;;;11.00;58.83;94184.72;5013119;28;20491;-74
2021/10/17 05:45:34;;;;;;;14.00;7.78;;;;;;;10.92;59.00;94196.13;5018050;28;20037;-71
2021/10/17 05:48:01;;;;;;;14.35;7.82;;;;;;;10.97;58.97;94201.31;5010867;28;20034;-74
2021/10/17 05:50:26;;;;;;;11.55;7.65;;;;;;;10.85;59.24;94190.47;5011352;28;20117;-72
2021/10/17 05:52:51;;;;;;;11.10;6.55;;;;;;;10.89;59.33;94180.78;5010364;28;20021;-72
2021/10/17 05:55:17;;;;;;;13.10;8.00;;;;;;;11.07;59.05;94210.91;5009470;28;20057;-73
2021/10/17 05:57:42;;;;;;;13.70;8.35;;;;;;;11.09;59.08;94208.72;5013373;28;20037;-72
2021/10/17 06:00:08;;;;;;;15.93;9.10;;;;;;;10.93;59.18;94202.22;5012622;28;20053;-72
2021/10/17 06:02:33;;;;;;;13.50;8.05;;;;;;;11.04;58.90;94211.53;5015150;28;20045;-72
2021/10/17 06:04:59;;;;;;;14.13;8.32;;;;;;;11.13;59.11;94215.81;5005811;28;20084;-72
2021/10/17 06:07:24;;;;;;;13.35;9.18;;;;;;;11.03;58.62;94197.44;5012274;28;20968;-72
2021/10/17 06:09:50;;;;;;;14.95;8.00;;;;;;;10.88;58.71;94205.00;5011466;28;20041;-72
2021/10/17 06:12:15;;;;;;;19.05;10.18;;;;;;;10.91;59.61;94215.81;5010196;28;20076;-72
2021/10/17 06:14:41;;;;;;;16.58;9.02;;;;;;;10.94;59.15;94209.13;5014905;28;20469;-72
2021/10/17 06:17:06;;;;;;;18.55;10.20;;;;;;;10.90;59.44;94206.28;5012426;28;20045;-72
2021/10/17 06:19:32;;;;;;;17.92;9.13;;;;;;;11.06;59.53;94226.09;5011185;28;20079;-71
2021/10/17 06:22:02;;;;;;;16.20;9.00;;;;;;;11.02;59.61;94227.78;5009022;28;21260;-72
2021/10/17 06:24:28;;;;;;;17.35;8.90;;;;;;;10.88;59.45;94211.13;5014011;28;20040;-72
2021/10/17 06:26:54;;;;;;;16.48;10.10;;;;;;;10.87;59.90;94232.72;5003447;28;20476;-71
2021/10/17 06:29:19;;;;;;;20.20;10.35;;;;;;;10.74;60.63;94213.88;5017634;28;20140;-72
2021/10/17 06:31:46;;;;;;;20.63;11.25;;;;;;;10.67;60.65;94229.47;5012478;28;20033;-72
2021/10/17 06:34:11;;;;;;;18.38;9.70;;;;;;;10.61;61.44;94237.88;5011887;28;20095;-73
2021/10/17 06:36:36;;;;;;;22.30;12.20;;;;;;;10.42;61.54;94232.72;5013330;28;20447;-72
2021/10/17 06:39:02;;;;;;;25.80;11.52;;;;;;;10.38;62.36;94234.41;5009810;28;20163;-73
2021/10/17 06:41:28;;;;;;;22.80;11.63;;;;;;;10.38;63.49;94236.28;5002545;28;20038;-73
2021/10/17 06:43:53;;;;;;;22.30;11.95;;;;;;;10.33;63.00;94229.19;5001346;28;20033;-72
2021/10/17 06:46:18;;;;;;;23.13;11.15;;;;;;;10.37;62.66;94230.16;5012763;28;20041;-72
2021/10/17 06:48:44;;;;;;;22.55;11.80;;;;;;;10.39;62.35;94237.84;5006143;28;21486;-72
2021/10/17 06:51:09;;;;;;;25.75;11.98;;;;;;;10.32;63.03;94231.03;5007090;28;20073;-72
2021/10/17 06:53:34;;;;;;;19.73;11.77;;;;;;;10.38;63.24;94221.13;5009569;28;20103;-72
2021/10/17 06:56:00;;;;;;;20.30;10.82;;;;;;;10.56;63.29;94240.66;5008897;28;20538;-71
2021/10/17 06:58:26;;;;;;;24.20;12.85;;;;;;;10.68;62.33;94238.22;5009995;28;21248;-72
2021/10/17 07:00:51;;;;;;;25.70;12.85;;;;;;;10.80;61.96;94243.81;5007122;28;20128;-74
2021/10/17 07:03:16;;;;;;;26.15;13.10;;;;;;;10.81;62.66;94229.38;5009313;28;20107;-72
2021/10/17 07:05:42;;;;;;;23.48;12.95;;;;;;;11.02;61.91;94246.44;5006831;28;20049;-72
2021/10/17 07:08:07;;;;;;;20.60;10.93;;;;;;;10.97;61.92;94233.25;5005975;28;20518;-72
2021/10/17 07:10:33;;;;;;;21.90;11.25;;;;;;;11.16;61.48;94247.13;5005326;28;20176;-73
2021/10/17 07:12:58;;;;;;;18.73;10.52;;;;;;;11.12;60.48;94238.19;5005197;28;20562;-72
2021/10/17 07:15:24;;;;;;;20.63;10.27;;;;;;;11.19;59.88;94248.41;5009039;28;20038;-72
2021/10/17 07:17:49;;;;;;;18.00;10.60;;;;;;;11.15;59.97;94256.19;5001761;28;20419;-72
2021/10/17 07:20:15;;;;;;;21.15;11.40;;;;;;;11.04;60.80;94249.56;5011702;28;20045;-72
2021/10/17 07:22:40;;;;;;;15.68;10.00;;;;;;;10.98;60.37;94245.47;5008368;28;20037;-74
2021/10/17 07:25:06;;;;;;;17.77;9.13;;;;;;;11.15;60.97;94261.53;5007058;28;20033;-73
2021/10/17 07:27:31;;;;;;;19.60;9.55;;;;;;;11.15;60.55;94260.72;5013341;28;20069;-72
2021/10/17 07:29:57;;;;;;;16.38;10.13;;;;;;;11.14;60.03;94243.22;5009358;28;20124;-72
2021/10/17 07:32:22;;;;;;;17.38;10.05;;;;;;;11.23;60.07;94259.22;5006875;28;20652;-72
2021/10/17 07:34:47;;;;;;;18.88;10.45;;;;;;;11.08;60.45;94261.19;5009074;28;20637;-72
2021/10/17 07:37:13;;;;;;;16.30;9.07;;;;;;;11.04;61.66;94248.78;5009643;28;20052;-72
2021/10/17 07:39:38;;;;;;;19.75;10.55;;;;;;;11.01;61.71;94271.47;5004957;28;20045;-72
2021/10/17 07:42:04;;;;;;;17.92;9.35;;;;;;;11.15;61.43;94263.38;5003925;28;20041;-72
2021/10/17 07:44:29;;;;;;;17.85;9.57;;;;;;;10.98;60.60;94271.28;5011604;28;20057;-72
2021/10/17 07:46:55;;;;;;;19.55;10.68;;;;;;;11.11;61.44;94276.53;5008176;28;20543;-73
2021/10/17 07:49:20;;;;;;;17.08;9.93;;;;;;;10.98;60.93;94256.13;5007893;28;20017;-72
2021/10/17 07:51:45;;;;;;;21.27;10.25;;;;;;;11.10;61.13;94274.19;5007609;28;20098;-72
2021/10/17 07:54:11;;;;;;;18.30;10.82;;;;;;;11.14;60.88;94270.63;5005815;28;20061;-73
2021/10/17 07:56:37;;;;;;;23.90;11.35;;;;;;;11.15;61.18;94269.50;5006168;28;20045;-73
2021/10/17 07:59:02;;;;;;;19.75;10.82;;;;;;;11.26;60.58;94279.91;5006726;28;20428;-72
2021/10/17 08:01:28;;;;;;;24.08;11.57;;;;;;;11.03;61.11;94266.63;5002809;28;20045;-72
2021/10/17 08:03:53;;;;;;;17.80;10.65;;;;;;;11.00;61.54;94263.81;5008549;28;20046;-74
2021/10/17 08:06:19;;;;;;;18.00;10.10;;;;;;;10.68;62.27;94243.53;5008177;28;20041;-72
2021/10/17 08:08:45;;;;;;;22.17;10.90;;;;;;;10.93;62.25;94268.75;5007166;28;20048;-73
2021/10/17 08:11:10;;;;;;;19.90;10.07;;;;;;;10.93;62.08;94252.78;5008137;28;20419;-73
2021/10/17 08:13:36;;;;;;;21.40;12.38;;;;;;;10.95;60.85;94246.09;5006873;28;20037;-74
2021/10/17 08:16:01;;;;;;;22.40;10.95;;;;;;;11.09;60.93;94267.28;5006776;28;20492;-72
2021/10/17 08:18:27;;;;;;;22.60;11.50;;;;;;;11.22;60.50;94271.75;5005753;28;20048;-74
2021/10/17 08:20:53;;;;;;;19.45;11.02;;;;;;;11.11;60.70;94249.13;5005249;28;20041;-72
2021/10/17 08:23:19;;;;;;;15.88;9.75;;;;;;;11.32;60.72;94265.38;5008946;28;20406;-72
2021/10/17 08:25:44;;;;;;;20.50;10.15;;;;;;;11.37;60.25;94252.72;5004620;28;20993;-73
2021/10/17 08:28:11;;;;;;;30.02;13.50;;;;;;;11.54;60.00;94257.38;5003222;28;20037;-73
2021/10/17 08:30:37;;;;;;;16.38;10.27;;;;;;;11.35;59.22;94235.44;5003622;28;20647;-72
2021/10/17 08:33:02;;;;;;;19.88;11.45;;;;;;;11.34;60.20;94237.34;5006948;28;20046;-73
2021/10/17 08:35:28;;;;;;;20.50;11.90;;;;;;;11.37;59.38;94257.25;5008600;28;20040;-72
2021/10/17 08:37:54;;;;;;;15.23;9.85;;;;;;;11.60;59.55;94269.44;5009756;28;20033;-73
2021/10/17 08:40:19;;;;;;;18.23;8.85;;;;;;;11.48;58.58;94259.34;5012086;28;20464;-72
2021/10/17 08:42:45;;;;;;;17.80;9.52;;;;;;;11.55;59.45;94253.59;5010973;28;20543;-72
2021/10/17 08:45:10;;;;;;;16.30;9.02;;;;;;;11.72;59.41;94258.19;5010501;28;20033;-72
2021/10/17 08:47:37;;;;;;;21.63;11.07;;;;;;;11.65;59.27;94253.31;5006927;28;20052;-74
2021/10/17 08:50:04;;;;;;;19.35;9.98;;;;;;;11.63;59.88;94266.16;5009548;28;20037;-74
2021/10/17 08:52:29;;;;;;;22.30;11.70;;;;;;;11.65;59.44;94249.84;5010607;28;20136;-71
2021/10/17 08:54:55;;;;;;;20.50;10.65;;;;;;;11.73;59.14;94255.22;5008939;28;20430;-73
2021/10/17 08:57:20;;;;;;;20.55;11.68;;;;;;;11.66;58.55;94254.09;5010233;28;20033;-73
2021/10/17 08:59:48;;;;;;;22.90;10.40;;;;;;;11.92;58.96;94269.09;5008116;28;20052;-72
2021/10/17 09:02:15;;;;;;;19.42;9.45;;;;;;;11.95;58.59;94273.00;5010973;28;20090;-72
2021/10/17 09:04:42;;;;;;;14.25;8.98;;;;;;;11.95;58.31;94271.13;5006934;28;20070;-72
2021/10/17 09:07:21;;;;;;;21.95;10.80;;;;;;;12.02;58.17;94268.78;5002970;28;20644;-74
2021/10/17 09:10:15;;;;;;;18.65;11.13;;;;;;;11.97;59.30;94265.50;5002474;28;20104;-72
2021/10/17 09:12:43;;;;;;;19.25;10.43;;;;;;;12.15;59.29;94260.97;5013934;28;20042;-72
2021/10/17 09:15:30;;;;;;;19.92;10.77;;;;;;;12.26;58.36;94263.03;5011892;28;20436;-72
2021/10/17 09:18:05;;;;;;;18.17;10.15;;;;;;;12.35;58.18;94260.38;5013336;28;20149;-72
2021/10/17 09:20:34;;;;;;;19.80;12.00;;;;;;;12.38;58.20;94251.72;5006448;28;20049;-73
2021/10/17 09:23:01;;;;;;;17.27;10.13;;;;;;;12.47;57.46;94253.28;5008395;28;21055;-72
2021/10/17 09:25:35;;;;;;;18.38;9.90;;;;;;;12.50;57.38;94257.22;5013902;28;20511;-72
2021/10/17 09:28:12;;;;;;;15.10;9.33;;;;;;;12.68;57.96;94261.50;5004495;28;20048;-73
2021/10/17 09:30:37;;;;;;;13.32;7.72;;;;;;;12.62;56.28;94232.59;5009707;28;20090;-73
2021/10/17 09:33:10;;;;;;;17.27;7.68;;;;;;;12.75;55.98;94253.81;5010281;28;20030;-72
2021/10/17 09:35:36;;;;;;;14.70;8.73;;;;;;;12.68;55.71;94240.13;5007027;28;20038;-73
2021/10/17 09:38:02;;;;;;;11.65;7.40;;;;;;;12.85;55.76;94255.38;5006176;28;20037;-73
2021/10/17 09:40:28;;;;;;;13.85;7.05;;;;;;;12.83;54.81;94250.34;5016387;28;20032;-73
2021/10/17 09:43:09;;;;;;;14.10;7.75;;;;;;;12.82;55.82;94253.31;5007287;28;20763;-72
2021/10/17 09:45:35;;;;;;;11.18;7.65;;;;;;;12.85;57.02;94248.16;5015632;28;20083;-72
2021/10/17 09:48:01;;;;;;;12.63;8.18;;;;;;;12.84;56.48;94251.91;5005838;28;20531;-74
2021/10/17 09:50:26;;;;;;;11.23;5.57;;;;;;;12.93;55.50;94248.44;5006826;28;20148;-72
2021/10/17 09:52:58;;;;;;;10.90;6.50;;;;;;;12.68;55.93;94248.16;5007910;28;20472;-71
2021/10/17 09:55:24;;;;;;;23.40;11.05;;;;;;;12.76;56.04;94243.91;5003866;28;20144;-72
2021/10/17 09:57:51;;;;;;;14.15;8.05;;;;;;;12.94;55.94;94245.44;5012021;28;20508;-72
2021/10/17 10:00:17;;;;;;;12.13;7.25;;;;;;;12.82;55.21;94246.09;5008754;28;20166;-73
2021/10/17 10:02:47;;;;;;;11.43;6.35;;;;;;;12.83;55.76;94228.97;5005477;28;20148;-72
2021/10/17 10:05:18;;;;;;;10.35;6.50;;;;;;;13.03;54.11;94232.09;5005231;28;20044;-72
2021/10/17 10:07:47;;;;;;;9.63;6.32;;;;;;;13.13;54.15;94243.22;5006868;28;20549;-73
2021/10/17 10:10:14;;;;;;;10.48;5.65;;;;;;;13.13;54.50;94239.75;5005515;28;20639;-72
2021/10/17 10:12:42;;;;;;;10.55;6.50;;;;;;;13.17;53.94;94240.69;5009806;28;20037;-72
2021/10/17 10:15:09;;;;;;;11.65;6.18;;;;;;;13.04;54.91;94233.66;4991242;28;20077;-73
2021/10/17 10:17:37;;;;;;;13.10;8.32;;;;;;;12.88;54.91;94223.47;4994862;28;20659;-72
2021/10/17 10:20:04;;;;;;;11.40;6.25;;;;;;;13.10;54.81;94221.72;4994786;28;20037;-72
2021/10/17 10:22:31;;;;;;;8.60;6.15;;;;;;;13.26;53.92;94226.19;5005309;28;20041;-72
2021/10/17 10:24:59;;;;;;;14.70;6.55;;;;;;;13.42;53.03;94228.34;5011049;28;20604;-72
2021/10/17 10:27:26;;;;;;;9.13;6.07;;;;;;;13.31;53.19;94201.19;5009896;28;20033;-72
2021/10/17 10:30:31;;;;;;;9.32;6.03;;;;;;;13.56;53.48;94223.56;5004354;28;20327;-72
2021/10/17 10:33:05;;;;;;;11.32;6.40;;;;;;;13.55;53.34;94220.13;5011889;28;20454;-73
2021/10/17 10:35:31;;;;;;;11.87;6.33;;;;;;;13.56;53.30;94221.69;5013221;28;20067;-73
2021/10/17 10:37:56;;;;;;;13.77;7.78;;;;;;;13.55;54.14;94212.09;5010491;28;20028;-73
2021/10/17 10:40:22;;;;;;;14.63;7.55;;;;;;;13.45;53.15;94204.44;5007152;28;20036;-73
2021/10/17 10:42:49;;;;;;;12.23;7.50;;;;;;;13.30;54.42;94188.94;5012995;28;20449;-74
2021/10/17 10:45:35;;;;;;;11.65;7.50;;;;;;;13.45;53.75;94207.09;5009904;28;20614;-74
2021/10/17 10:48:13;;;;;;;16.75;8.35;;;;;;;13.52;54.33;94212.75;5000149;28;20107;-72
2021/10/17 10:50:54;;;;;;;21.05;10.00;;;;;;;13.45;54.92;94209.78;5014001;28;20041;-72
2021/10/17 10:53:49;;;;;;;12.15;7.32;;;;;;;13.64;54.49;94202.19;5006982;28;20400;-72
2021/10/17 10:56:46;;;;;;;33.58;13.55;;;;;;;13.49;54.60;94208.06;5011453;28;20045;-72
2021/10/17 10:59:17;;;;;;;19.58;10.73;;;;;;;13.56;54.35;94200.31;5007983;28;20569;-72
2021/10/17 11:01:54;;;;;;;14.88;9.70;;;;;;;13.44;54.91;94210.91;5003487;28;20518;-73
2021/10/17 11:04:37;;;;;;;15.90;9.10;;;;;;;13.59;54.27;94202.34;5014267;28;20025;-72
2021/10/17 11:07:18;;;;;;;13.23;7.88;;;;;;;13.52;54.31;94212.75;4997178;28;20073;-72
2021/10/17 11:09:45;;;;;;;13.38;8.85;;;;;;;13.47;53.71;94198.78;5009415;28;20431;-72
2021/10/17 11:12:11;;;;;;;15.80;8.77;;;;;;;13.23;54.26;94188.66;5007011;28;20037;-73
2021/10/17 11:14:36;;;;;;;19.40;9.48;;;;;;;13.53;53.94;94197.50;5004431;28;20501;-73
2021/10/17 11:17:06;;;;;;;11.90;8.18;;;;;;;13.52;53.96;94178.00;5008221;28;20063;-72
2021/10/17 11:19:33;;;;;;;23.63;8.80;;;;;;;13.60;53.83;94193.25;5012713;28;20029;-72
2021/10/17 11:22:01;;;;;;;16.20;7.35;;;;;;;13.72;54.09;94193.34;5009651;28;20045;-72
2021/10/17 11:24:27;;;;;;;33.17;14.73;;;;;;;13.59;54.18;94186.31;5001431;28;20061;-72
2021/10/17 11:27:12;;;;;;;14.85;7.80;;;;;;;13.79;54.09;94190.16;5009897;28;20041;-72